Arethusa — 9HJR9 — position and weather

sailwx.info

Track history (hours):
 
Tides and Currents Weather Stations Pressure Air Temp Water Temp Dewpoint Dewpoint Depression Visibility Wind Speed Wind Dir Waves Ship Positions

Arethusa

Last reported at 2018-Apr-23 17:36 UTC. Time now 2018-Apr-23 19:30 UTC.
Position N 42°46' E 009°47'.

Length 60 m; draft 3 m.

Type: Passenger vessel. MMSI: 249069000.

Date/timePositionNaut miles runAvg speedWind from/ knotsBaromVisibWave heightAir tempDewpointWater temp
2018-Apr-23 17:36N 42°46' E 009°47'4 9.9
2018-Apr-23 17:11N 42°45' E 009°42'11 1.0
2018-Apr-23 06:03N 42°42' E 009°27'0 0.1
2018-Apr-23 05:59N 42°42' E 009°27'1 1.3
2018-Apr-23 05:26N 42°42' E 009°28'510.4
2018-Apr-23 05:00N 42°45' E 009°32'511.0
2018-Apr-23 04:30N 42°49' E 009°38'610.1
2018-Apr-23 03:54N 42°55' E 009°36'510.5
2018-Apr-23 03:28N 42°60' E 009°36'510.3
2018-Apr-23 03:00N 43°04' E 009°36'510.6
2018-Apr-23 02:30N 43°09' E 009°38'510.5
2018-Apr-23 02:00N 43°14' E 009°40'510.2
2018-Apr-23 01:30N 43°19' E 009°42'510.2
2018-Apr-23 01:00N 43°24' E 009°44'5 9.9
2018-Apr-23 00:30N 43°29' E 009°46'510.2
2018-Apr-23 00:00N 43°34' E 009°48'510.3
2018-Apr-22 23:30N 43°39' E 009°51'510.2
2018-Apr-22 23:00N 43°43' E 009°53'510.2
2018-Apr-22 22:30N 43°48' E 009°56'510.3
2018-Apr-22 22:00N 43°53' E 009°58'510.6
2018-Apr-22 21:30N 43°58' E 010°01'4 7.9
2018-Apr-22 20:57N 44°02' E 010°02'0 0.0
2018-Apr-22 20:30N 44°02' E 010°02'0 0.0
2018-Apr-22 20:00N 44°02' E 010°02'0 0.0
2018-Apr-22 19:30N 44°02' E 010°02'0 0.0
2018-Apr-22 18:57N 44°02' E 010°02'0 0.0
2018-Apr-22 18:30N 44°02' E 010°02'0 0.0
2018-Apr-22 18:00N 44°02' E 010°02'0 0.0
2018-Apr-22 17:30N 44°02' E 010°02'0 0.0
2018-Apr-22 17:00N 44°02' E 010°02'0 0.0
2018-Apr-22 16:30N 44°02' E 010°02'0 0.0
2018-Apr-22 15:59N 44°02' E 010°02'0 0.0
2018-Apr-22 15:30N 44°02' E 010°02'0 0.0
2018-Apr-22 15:00N 44°02' E 010°02'0 0.0
2018-Apr-22 14:30N 44°02' E 010°02'0 0.0
2018-Apr-22 14:00N 44°02' E 010°02'0 0.0
2018-Apr-22 13:30N 44°02' E 010°02'0 0.0
2018-Apr-22 13:00N 44°02' E 010°02'0 0.0
2018-Apr-22 12:30N 44°02' E 010°02'0 0.0
2018-Apr-22 12:00N 44°02' E 010°02'0 0.0
2018-Apr-22 11:30N 44°02' E 010°02'1 2.5
2018-Apr-22 11:00N 44°01' E 010°02'5 9.0
2018-Apr-22 10:30N 44°00' E 009°55'4 8.6
2018-Apr-22 10:00N 44°03' E 009°51'0 0.8
2018-Apr-22 09:30N 44°03' E 009°51'0 0.0
2018-Apr-22 09:00N 44°03' E 009°51'0 0.0
2018-Apr-22 08:30N 44°03' E 009°51'0 0.0
2018-Apr-22 08:00N 44°03' E 009°51'0 0.0
2018-Apr-22 07:30N 44°03' E 009°51'0 0.0
2018-Apr-22 07:00N 44°03' E 009°51'0 0.0
2018-Apr-22 06:27N 44°03' E 009°51'0 0.0
2018-Apr-22 06:00N 44°03' E 009°51'0 0.0
2018-Apr-22 05:30N 44°03' E 009°51'0 0.0
2018-Apr-22 05:00N 44°03' E 009°51'0 0.0
2018-Apr-22 04:30N 44°03' E 009°51'0 0.0
2018-Apr-22 04:00N 44°03' E 009°51'0 0.0
2018-Apr-22 03:30N 44°03' E 009°51'0 0.0
2018-Apr-22 03:00N 44°03' E 009°51'0 0.0
2018-Apr-22 02:30N 44°03' E 009°51'0 0.0
2018-Apr-22 02:00N 44°03' E 009°51'0 0.0
2018-Apr-22 01:30N 44°03' E 009°51'0 0.0
2018-Apr-22 01:00N 44°03' E 009°51'0 0.0
2018-Apr-22 00:30N 44°03' E 009°51'0 0.0
2018-Apr-22 00:00N 44°03' E 009°51'0 0.0
2018-Apr-21 23:30N 44°03' E 009°51'0 0.0
2018-Apr-21 22:57N 44°03' E 009°51'0 0.0
2018-Apr-21 22:30N 44°03' E 009°51'0 0.0
2018-Apr-21 22:00N 44°03' E 009°51'0 0.0
2018-Apr-21 21:30N 44°03' E 009°51'0 0.0
2018-Apr-21 21:00N 44°03' E 009°51'0 0.0
2018-Apr-21 20:30N 44°03' E 009°51'0 0.0
2018-Apr-21 20:00N 44°03' E 009°51'0 0.0
2018-Apr-21 19:30N 44°03' E 009°51'0 0.0
2018-Apr-21 19:00N 44°03' E 009°51'0 0.0
2018-Apr-21 18:30N 44°03' E 009°51'0 0.0
2018-Apr-21 18:00N 44°03' E 009°51'0 0.0
2018-Apr-21 17:30N 44°03' E 009°51'0 0.0
2018-Apr-21 17:00N 44°03' E 009°51'0 0.0
2018-Apr-21 16:30N 44°03' E 009°51'0 0.0
2018-Apr-21 16:00N 44°03' E 009°51'0 0.1
2018-Apr-21 15:30N 44°03' E 009°51'0 0.1
2018-Apr-21 15:00N 44°03' E 009°51'0 0.1
2018-Apr-21 14:30N 44°03' E 009°51'0 0.1
2018-Apr-21 14:00N 44°03' E 009°51'0 0.1
2018-Apr-21 13:30N 44°03' E 009°51'0 0.1
2018-Apr-21 13:01N 44°03' E 009°51'0 0.0
2018-Apr-21 12:30N 44°03' E 009°51'0 0.0
2018-Apr-21 12:00N 44°03' E 009°51'0 0.1
2018-Apr-21 11:31N 44°03' E 009°51'0 0.1
2018-Apr-21 11:01N 44°03' E 009°51'0 0.1
2018-Apr-21 10:31N 44°03' E 009°51'0 0.1
2018-Apr-21 10:00N 44°03' E 009°51'0 0.1
2018-Apr-21 09:31N 44°03' E 009°51'0 0.0
2018-Apr-21 09:00N 44°03' E 009°51'0 0.0
2018-Apr-21 08:30N 44°03' E 009°51'0 0.1
2018-Apr-21 08:00N 44°03' E 009°51'0 0.0
2018-Apr-21 07:30N 44°03' E 009°51'0 0.0
2018-Apr-21 07:00N 44°03' E 009°51'0 0.0
2018-Apr-21 06:30N 44°03' E 009°51'0 0.0
2018-Apr-21 06:00N 44°03' E 009°51'0 0.0
2018-Apr-21 05:30N 44°03' E 009°51'0 0.0
2018-Apr-21 05:00N 44°03' E 009°51'0 0.0
2018-Apr-21 04:30N 44°03' E 009°51'0 0.0
2018-Apr-21 04:00N 44°03' E 009°51'0 0.0
2018-Apr-21 03:30N 44°03' E 009°51'0 0.0
2018-Apr-21 03:00N 44°03' E 009°51'0 0.0
2018-Apr-21 02:30N 44°03' E 009°51'0 0.0
2018-Apr-21 02:00N 44°03' E 009°51'0 0.0
2018-Apr-21 01:30N 44°03' E 009°51'0 0.0
2018-Apr-21 01:00N 44°03' E 009°51'0 0.0
2018-Apr-21 00:30N 44°03' E 009°51'0 0.0
2018-Apr-21 00:00N 44°03' E 009°51'0 0.0
2018-Apr-20 23:30N 44°03' E 009°51'0 0.0
2018-Apr-20 23:00N 44°03' E 009°51'0 0.0
2018-Apr-20 22:30N 44°03' E 009°51'0 0.0
2018-Apr-20 22:00N 44°03' E 009°51'0 0.0
2018-Apr-20 21:30N 44°03' E 009°51'0 0.0
2018-Apr-20 21:00N 44°03' E 009°51'0 0.0
2018-Apr-20 20:30N 44°03' E 009°51'0 0.1
2018-Apr-20 20:00N 44°03' E 009°51'4 7.2
2018-Apr-20 19:30N 44°01' E 009°55'4 8.8
2018-Apr-20 19:00N 44°00' E 009°49'510.4
2018-Apr-20 18:30N 44°01' E 009°42'510.4
2018-Apr-20 18:00N 44°05' E 009°37'510.4
2018-Apr-20 17:30N 44°08' E 009°31'510.4
2018-Apr-20 17:00N 44°12' E 009°26'510.3
2018-Apr-20 16:30N 44°15' E 009°21'7 0.6
2018-Apr-20 05:50N 44°20' E 009°14'3 8.9
2018-Apr-20 05:31N 44°18' E 009°17'4 9.0
2018-Apr-20 05:01N 44°15' E 009°12'510.2
2018-Apr-20 04:30N 44°12' E 009°06'510.2
2018-Apr-20 04:01N 44°10' E 008°59'5 9.8
2018-Apr-20 03:31N 44°08' E 008°53'510.5
2018-Apr-20 02:59N 44°05' E 008°46'510.5
2018-Apr-20 02:30N 44°03' E 008°40'510.1
2018-Apr-20 02:00N 44°01' E 008°34'6 9.8
2018-Apr-20 01:24N 43°58' E 008°27'  
2018-Apr-17 00:26N 43°57' E 008°22'511.0
2018-Apr-16 23:58N 43°59' E 008°28'611.1
2018-Apr-16 23:28N 44°02' E 008°35'610.8
2018-Apr-16 22:57N 44°05' E 008°42'510.6
2018-Apr-16 22:30N 44°07' E 008°48'510.5
2018-Apr-16 22:00N 44°09' E 008°54'510.5
2018-Apr-16 21:30N 44°11' E 009°01'510.5
2018-Apr-16 21:00N 44°13' E 009°08'510.3
2018-Apr-16 20:30N 44°15' E 009°15'4 0.3
2018-Apr-16 05:02N 44°19' E 009°14'0 7.5
2018-Apr-16 05:00N 44°19' E 009°15'4 8.7
2018-Apr-16 04:30N 44°16' E 009°19'5 9.3
2018-Apr-16 04:00N 44°13' E 009°24'5 9.4
2018-Apr-16 03:30N 44°10' E 009°29'5 9.8
2018-Apr-16 03:00N 44°07' E 009°34'510.0
2018-Apr-16 02:30N 44°03' E 009°39'5 9.8
2018-Apr-16 02:00N 44°01' E 009°45'510.1
2018-Apr-16 01:30N 44°01' E 009°52'2 4.0
2018-Apr-16 00:58N 44°03' E 009°51'0 0.0
2018-Apr-16 00:28N 44°03' E 009°51'0 0.0
2018-Apr-15 23:58N 44°03' E 009°51'0 0.0
2018-Apr-15 23:28N 44°03' E 009°51'0 0.0
2018-Apr-15 22:58N 44°03' E 009°51'0 0.0
2018-Apr-15 22:28N 44°03' E 009°51'0 0.0
2018-Apr-15 21:58N 44°03' E 009°51'0 0.0
2018-Apr-15 21:28N 44°03' E 009°51'0 0.1
2018-Apr-15 20:58N 44°03' E 009°51'0 0.0
2018-Apr-15 20:28N 44°03' E 009°51'0 0.0
2018-Apr-15 19:58N 44°03' E 009°51'0 0.0
2018-Apr-15 19:28N 44°03' E 009°51'0 0.0
2018-Apr-15 18:58N 44°03' E 009°51'0 0.0
2018-Apr-15 18:28N 44°03' E 009°51'0 0.0
2018-Apr-15 17:58N 44°03' E 009°51'0 0.0
2018-Apr-15 17:28N 44°03' E 009°51'0 0.0
2018-Apr-15 16:58N 44°03' E 009°51'0 0.0
2018-Apr-15 16:28N 44°03' E 009°51'0 0.0
2018-Apr-15 15:58N 44°03' E 009°51'0 0.0
2018-Apr-15 15:28N 44°03' E 009°51'0 0.0
2018-Apr-15 14:58N 44°03' E 009°51'0 0.0
2018-Apr-15 14:28N 44°03' E 009°51'0 0.0
2018-Apr-15 13:58N 44°03' E 009°51'0 0.0
2018-Apr-15 13:28N 44°03' E 009°51'0 0.0
2018-Apr-15 12:58N 44°03' E 009°51'0 0.0
2018-Apr-15 12:28N 44°03' E 009°51'0 0.0
2018-Apr-15 11:58N 44°03' E 009°51'0 0.0
2018-Apr-15 11:28N 44°03' E 009°51'0 0.0
2018-Apr-15 10:58N 44°03' E 009°51'0 0.0
2018-Apr-15 10:31N 44°03' E 009°51'0 0.0
2018-Apr-15 10:00N 44°03' E 009°51'0 0.0
2018-Apr-15 09:30N 44°03' E 009°51'0 0.0
2018-Apr-15 09:01N 44°03' E 009°51'0 0.0
2018-Apr-15 08:30N 44°03' E 009°51'0 0.0
2018-Apr-15 08:00N 44°03' E 009°51'0 0.0
2018-Apr-15 07:31N 44°03' E 009°51'0 0.0
2018-Apr-15 07:00N 44°03' E 009°51'0 0.0
2018-Apr-15 06:30N 44°03' E 009°51'0 0.0
2018-Apr-15 06:01N 44°03' E 009°51'0 0.0
2018-Apr-15 05:30N 44°03' E 009°51'0 0.0
2018-Apr-15 05:00N 44°03' E 009°51'0 0.0
2018-Apr-15 04:30N 44°03' E 009°51'0 0.0
2018-Apr-15 04:00N 44°03' E 009°51'0 0.0
2018-Apr-15 03:30N 44°03' E 009°51'0 0.0
2018-Apr-15 03:01N 44°03' E 009°51'0 0.1
2018-Apr-15 02:30N 44°03' E 009°51'0 0.0
2018-Apr-15 02:00N 44°03' E 009°51'0 0.0
2018-Apr-15 01:30N 44°03' E 009°51'0 0.0
2018-Apr-15 01:00N 44°03' E 009°51'0 0.0
2018-Apr-15 00:30N 44°03' E 009°51'0 0.0
2018-Apr-15 00:00N 44°03' E 009°51'0 0.0
2018-Apr-14 23:31N 44°03' E 009°51'0 0.0
2018-Apr-14 23:00N 44°03' E 009°51'0 0.0
2018-Apr-14 22:30N 44°03' E 009°51'0 0.0
2018-Apr-14 22:00N 44°03' E 009°51'0 0.0
2018-Apr-14 21:30N 44°03' E 009°51'0 0.0
2018-Apr-14 21:01N 44°03' E 009°51'0 0.0
2018-Apr-14 20:30N 44°03' E 009°51'0 0.0
2018-Apr-14 20:00N 44°03' E 009°51'0 0.0
2018-Apr-14 19:30N 44°03' E 009°51'0 0.0
2018-Apr-14 19:00N 44°03' E 009°51'0 0.0
2018-Apr-14 18:30N 44°03' E 009°51'0 0.0
2018-Apr-14 18:00N 44°03' E 009°51'0 0.1
2018-Apr-14 17:30N 44°03' E 009°51'0 0.0
2018-Apr-14 17:01N 44°03' E 009°51'0 0.0
2018-Apr-14 16:30N 44°03' E 009°51'0 0.0
2018-Apr-14 16:00N 44°03' E 009°51'0 0.0
2018-Apr-14 15:31N 44°03' E 009°51'0 0.0
2018-Apr-14 15:00N 44°03' E 009°51'0 0.0
2018-Apr-14 14:30N 44°03' E 009°51'0 0.0
2018-Apr-14 14:01N 44°03' E 009°51'0 0.0
2018-Apr-14 13:31N 44°03' E 009°51'0 0.0
2018-Apr-14 13:00N 44°03' E 009°51'0 0.0
2018-Apr-14 12:30N 44°03' E 009°51'3 5.5
2018-Apr-14 12:00N 44°02' E 009°54'5 9.7
2018-Apr-14 11:30N 44°01' E 010°01'2 2.7
2018-Apr-14 10:55N 44°02' E 010°02'0 0.0
2018-Apr-14 10:25N 44°02' E 010°02'0 0.0
2018-Apr-14 09:43N 44°02' E 010°02'0 0.0
2018-Apr-14 09:25N 44°02' E 010°02'0 0.0
2018-Apr-14 08:58N 44°02' E 010°02'0 0.0
2018-Apr-14 08:28N 44°02' E 010°02'0 0.0
2018-Apr-14 07:58N 44°02' E 010°02'0 0.0
2018-Apr-14 07:25N 44°02' E 010°02'0 0.0
2018-Apr-14 06:58N 44°02' E 010°02'0 0.0
2018-Apr-14 06:28N 44°02' E 010°02'0 0.0
2018-Apr-14 05:58N 44°02' E 010°02'0 0.0
2018-Apr-14 05:28N 44°02' E 010°02'1 2.1
2018-Apr-14 05:01N 44°01' E 010°03'4 8.1
2018-Apr-14 04:30N 43°57' E 010°03'4 8.9
2018-Apr-14 04:01N 43°53' E 010°04'5 9.1
2018-Apr-14 03:30N 43°48' E 010°04'5 9.3
2018-Apr-14 03:01N 43°43' E 010°04'5 9.4
2018-Apr-14 02:30N 43°39' E 010°04'5 9.6
2018-Apr-14 02:01N 43°34' E 010°05'510.6
2018-Apr-14 01:31N 43°29' E 010°06'510.6
2018-Apr-14 01:01N 43°24' E 010°07'510.4
2018-Apr-14 00:30N 43°19' E 010°09'510.4
2018-Apr-14 00:01N 43°14' E 010°11'26 7.3
2018-Apr-13 20:26N 42°48' E 010°20'  
Track history (hours):
 
Tides and Currents Weather Stations Pressure Air Temp Water Temp Dewpoint Dewpoint Depression Visibility Wind Speed Wind Dir Waves Ship Positions

Arethusa

Last reported at 2018-Apr-23 17:36 UTC. Time now 2018-Apr-23 19:30 UTC.
Position N 42°46' E 009°47'.

Length 60 m; draft 3 m.

Type: Passenger vessel. MMSI: 249069000.

Date/timePositionNaut miles runAvg speedWind from/ knotsBaromVisibWave heightAir tempDewpointWater temp
2018-Apr-23 17:36N 42°46' E 009°47'4 9.9
2018-Apr-23 17:11N 42°45' E 009°42'11 1.0
2018-Apr-23 06:03N 42°42' E 009°27'0 0.1
2018-Apr-23 05:59N 42°42' E 009°27'1 1.3
2018-Apr-23 05:26N 42°42' E 009°28'510.4
2018-Apr-23 05:00N 42°45' E 009°32'511.0
2018-Apr-23 04:30N 42°49' E 009°38'610.1
2018-Apr-23 03:54N 42°55' E 009°36'510.5
2018-Apr-23 03:28N 42°60' E 009°36'510.3
2018-Apr-23 03:00N 43°04' E 009°36'510.6
2018-Apr-23 02:30N 43°09' E 009°38'510.5
2018-Apr-23 02:00N 43°14' E 009°40'510.2
2018-Apr-23 01:30N 43°19' E 009°42'510.2
2018-Apr-23 01:00N 43°24' E 009°44'5 9.9
2018-Apr-23 00:30N 43°29' E 009°46'510.2
2018-Apr-23 00:00N 43°34' E 009°48'510.3
2018-Apr-22 23:30N 43°39' E 009°51'510.2
2018-Apr-22 23:00N 43°43' E 009°53'510.2
2018-Apr-22 22:30N 43°48' E 009°56'510.3
2018-Apr-22 22:00N 43°53' E 009°58'510.6
2018-Apr-22 21:30N 43°58' E 010°01'4 7.9
2018-Apr-22 20:57N 44°02' E 010°02'0 0.0
2018-Apr-22 20:30N 44°02' E 010°02'0 0.0
2018-Apr-22 20:00N 44°02' E 010°02'0 0.0
2018-Apr-22 19:30N 44°02' E 010°02'0 0.0
2018-Apr-22 18:57N 44°02' E 010°02'0 0.0
2018-Apr-22 18:30N 44°02' E 010°02'0 0.0
2018-Apr-22 18:00N 44°02' E 010°02'0 0.0
2018-Apr-22 17:30N 44°02' E 010°02'0 0.0
2018-Apr-22 17:00N 44°02' E 010°02'0 0.0
2018-Apr-22 16:30N 44°02' E 010°02'0 0.0
2018-Apr-22 15:59N 44°02' E 010°02'0 0.0
2018-Apr-22 15:30N 44°02' E 010°02'0 0.0
2018-Apr-22 15:00N 44°02' E 010°02'0 0.0
2018-Apr-22 14:30N 44°02' E 010°02'0 0.0
2018-Apr-22 14:00N 44°02' E 010°02'0 0.0
2018-Apr-22 13:30N 44°02' E 010°02'0 0.0
2018-Apr-22 13:00N 44°02' E 010°02'0 0.0
2018-Apr-22 12:30N 44°02' E 010°02'0 0.0
2018-Apr-22 12:00N 44°02' E 010°02'0 0.0
2018-Apr-22 11:30N 44°02' E 010°02'1 2.5
2018-Apr-22 11:00N 44°01' E 010°02'5 9.0
2018-Apr-22 10:30N 44°00' E 009°55'4 8.6
2018-Apr-22 10:00N 44°03' E 009°51'0 0.8
2018-Apr-22 09:30N 44°03' E 009°51'0 0.0
2018-Apr-22 09:00N 44°03' E 009°51'0 0.0
2018-Apr-22 08:30N 44°03' E 009°51'0 0.0
2018-Apr-22 08:00N 44°03' E 009°51'0 0.0
2018-Apr-22 07:30N 44°03' E 009°51'0 0.0
2018-Apr-22 07:00N 44°03' E 009°51'0 0.0
2018-Apr-22 06:27N 44°03' E 009°51'0 0.0
2018-Apr-22 06:00N 44°03' E 009°51'0 0.0
2018-Apr-22 05:30N 44°03' E 009°51'0 0.0
2018-Apr-22 05:00N 44°03' E 009°51'0 0.0
2018-Apr-22 04:30N 44°03' E 009°51'0 0.0
2018-Apr-22 04:00N 44°03' E 009°51'0 0.0
2018-Apr-22 03:30N 44°03' E 009°51'0 0.0
2018-Apr-22 03:00N 44°03' E 009°51'0 0.0
2018-Apr-22 02:30N 44°03' E 009°51'0 0.0
2018-Apr-22 02:00N 44°03' E 009°51'0 0.0
2018-Apr-22 01:30N 44°03' E 009°51'0 0.0
2018-Apr-22 01:00N 44°03' E 009°51'0 0.0
2018-Apr-22 00:30N 44°03' E 009°51'0 0.0
2018-Apr-22 00:00N 44°03' E 009°51'0 0.0
2018-Apr-21 23:30N 44°03' E 009°51'0 0.0
2018-Apr-21 22:57N 44°03' E 009°51'0 0.0
2018-Apr-21 22:30N 44°03' E 009°51'0 0.0
2018-Apr-21 22:00N 44°03' E 009°51'0 0.0
2018-Apr-21 21:30N 44°03' E 009°51'0 0.0
2018-Apr-21 21:00N 44°03' E 009°51'0 0.0
2018-Apr-21 20:30N 44°03' E 009°51'0 0.0
2018-Apr-21 20:00N 44°03' E 009°51'0 0.0
2018-Apr-21 19:30N 44°03' E 009°51'0 0.0
2018-Apr-21 19:00N 44°03' E 009°51'0 0.0
2018-Apr-21 18:30N 44°03' E 009°51'0 0.0
2018-Apr-21 18:00N 44°03' E 009°51'0 0.0
2018-Apr-21 17:30N 44°03' E 009°51'0 0.0
2018-Apr-21 17:00N 44°03' E 009°51'0 0.0
2018-Apr-21 16:30N 44°03' E 009°51'0 0.0
2018-Apr-21 16:00N 44°03' E 009°51'0 0.1
2018-Apr-21 15:30N 44°03' E 009°51'0 0.1
2018-Apr-21 15:00N 44°03' E 009°51'0 0.1
2018-Apr-21 14:30N 44°03' E 009°51'0 0.1
2018-Apr-21 14:00N 44°03' E 009°51'0 0.1
2018-Apr-21 13:30N 44°03' E 009°51'0 0.1
2018-Apr-21 13:01N 44°03' E 009°51'0 0.0
2018-Apr-21 12:30N 44°03' E 009°51'0 0.0
2018-Apr-21 12:00N 44°03' E 009°51'0 0.1
2018-Apr-21 11:31N 44°03' E 009°51'0 0.1
2018-Apr-21 11:01N 44°03' E 009°51'0 0.1
2018-Apr-21 10:31N 44°03' E 009°51'0 0.1
2018-Apr-21 10:00N 44°03' E 009°51'0 0.1
2018-Apr-21 09:31N 44°03' E 009°51'0 0.0
2018-Apr-21 09:00N 44°03' E 009°51'0 0.0
2018-Apr-21 08:30N 44°03' E 009°51'0 0.1
2018-Apr-21 08:00N 44°03' E 009°51'0 0.0
2018-Apr-21 07:30N 44°03' E 009°51'0 0.0
2018-Apr-21 07:00N 44°03' E 009°51'0 0.0
2018-Apr-21 06:30N 44°03' E 009°51'0 0.0
2018-Apr-21 06:00N 44°03' E 009°51'0 0.0
2018-Apr-21 05:30N 44°03' E 009°51'0 0.0
2018-Apr-21 05:00N 44°03' E 009°51'0 0.0
2018-Apr-21 04:30N 44°03' E 009°51'0 0.0
2018-Apr-21 04:00N 44°03' E 009°51'0 0.0
2018-Apr-21 03:30N 44°03' E 009°51'0 0.0
2018-Apr-21 03:00N 44°03' E 009°51'0 0.0
2018-Apr-21 02:30N 44°03' E 009°51'0 0.0
2018-Apr-21 02:00N 44°03' E 009°51'0 0.0
2018-Apr-21 01:30N 44°03' E 009°51'0 0.0
2018-Apr-21 01:00N 44°03' E 009°51'0 0.0
2018-Apr-21 00:30N 44°03' E 009°51'0 0.0
2018-Apr-21 00:00N 44°03' E 009°51'0 0.0
2018-Apr-20 23:30N 44°03' E 009°51'0 0.0
2018-Apr-20 23:00N 44°03' E 009°51'0 0.0
2018-Apr-20 22:30N 44°03' E 009°51'0 0.0
2018-Apr-20 22:00N 44°03' E 009°51'0 0.0
2018-Apr-20 21:30N 44°03' E 009°51'0 0.0
2018-Apr-20 21:00N 44°03' E 009°51'0 0.0
2018-Apr-20 20:30N 44°03' E 009°51'0 0.1
2018-Apr-20 20:00N 44°03' E 009°51'4 7.2
2018-Apr-20 19:30N 44°01' E 009°55'4 8.8
2018-Apr-20 19:00N 44°00' E 009°49'510.4
2018-Apr-20 18:30N 44°01' E 009°42'510.4
2018-Apr-20 18:00N 44°05' E 009°37'510.4
2018-Apr-20 17:30N 44°08' E 009°31'510.4
2018-Apr-20 17:00N 44°12' E 009°26'510.3
2018-Apr-20 16:30N 44°15' E 009°21'7 0.6
2018-Apr-20 05:50N 44°20' E 009°14'3 8.9
2018-Apr-20 05:31N 44°18' E 009°17'4 9.0
2018-Apr-20 05:01N 44°15' E 009°12'510.2
2018-Apr-20 04:30N 44°12' E 009°06'510.2
2018-Apr-20 04:01N 44°10' E 008°59'5 9.8
2018-Apr-20 03:31N 44°08' E 008°53'510.5
2018-Apr-20 02:59N 44°05' E 008°46'510.5
2018-Apr-20 02:30N 44°03' E 008°40'510.1
2018-Apr-20 02:00N 44°01' E 008°34'6 9.8
2018-Apr-20 01:24N 43°58' E 008°27'  
2018-Apr-17 00:26N 43°57' E 008°22'511.0
2018-Apr-16 23:58N 43°59' E 008°28'611.1
2018-Apr-16 23:28N 44°02' E 008°35'610.8
2018-Apr-16 22:57N 44°05' E 008°42'510.6
2018-Apr-16 22:30N 44°07' E 008°48'510.5
2018-Apr-16 22:00N 44°09' E 008°54'510.5
2018-Apr-16 21:30N 44°11' E 009°01'510.5
2018-Apr-16 21:00N 44°13' E 009°08'510.3
2018-Apr-16 20:30N 44°15' E 009°15'4 0.3
2018-Apr-16 05:02N 44°19' E 009°14'0 7.5
2018-Apr-16 05:00N 44°19' E 009°15'4 8.7
2018-Apr-16 04:30N 44°16' E 009°19'5 9.3
2018-Apr-16 04:00N 44°13' E 009°24'5 9.4
2018-Apr-16 03:30N 44°10' E 009°29'5 9.8
2018-Apr-16 03:00N 44°07' E 009°34'510.0
2018-Apr-16 02:30N 44°03' E 009°39'5 9.8
2018-Apr-16 02:00N 44°01' E 009°45'510.1
2018-Apr-16 01:30N 44°01' E 009°52'2 4.0
2018-Apr-16 00:58N 44°03' E 009°51'0 0.0
2018-Apr-16 00:28N 44°03' E 009°51'0 0.0
2018-Apr-15 23:58N 44°03' E 009°51'0 0.0
2018-Apr-15 23:28N 44°03' E 009°51'0 0.0
2018-Apr-15 22:58N 44°03' E 009°51'0 0.0
2018-Apr-15 22:28N 44°03' E 009°51'0 0.0
2018-Apr-15 21:58N 44°03' E 009°51'0 0.0
2018-Apr-15 21:28N 44°03' E 009°51'0 0.1
2018-Apr-15 20:58N 44°03' E 009°51'0 0.0
2018-Apr-15 20:28N 44°03' E 009°51'0 0.0
2018-Apr-15 19:58N 44°03' E 009°51'0 0.0
2018-Apr-15 19:28N 44°03' E 009°51'0 0.0
2018-Apr-15 18:58N 44°03' E 009°51'0 0.0
2018-Apr-15 18:28N 44°03' E 009°51'0 0.0
2018-Apr-15 17:58N 44°03' E 009°51'0 0.0
2018-Apr-15 17:28N 44°03' E 009°51'0 0.0
2018-Apr-15 16:58N 44°03' E 009°51'0 0.0
2018-Apr-15 16:28N 44°03' E 009°51'0 0.0
2018-Apr-15 15:58N 44°03' E 009°51'0 0.0
2018-Apr-15 15:28N 44°03' E 009°51'0 0.0
2018-Apr-15 14:58N 44°03' E 009°51'0 0.0
2018-Apr-15 14:28N 44°03' E 009°51'0 0.0
2018-Apr-15 13:58N 44°03' E 009°51'0 0.0
2018-Apr-15 13:28N 44°03' E 009°51'0 0.0
2018-Apr-15 12:58N 44°03' E 009°51'0 0.0
2018-Apr-15 12:28N 44°03' E 009°51'0 0.0
2018-Apr-15 11:58N 44°03' E 009°51'0 0.0
2018-Apr-15 11:28N 44°03' E 009°51'0 0.0
2018-Apr-15 10:58N 44°03' E 009°51'0 0.0
2018-Apr-15 10:31N 44°03' E 009°51'0 0.0
2018-Apr-15 10:00N 44°03' E 009°51'0 0.0
2018-Apr-15 09:30N 44°03' E 009°51'0 0.0
2018-Apr-15 09:01N 44°03' E 009°51'0 0.0
2018-Apr-15 08:30N 44°03' E 009°51'0 0.0
2018-Apr-15 08:00N 44°03' E 009°51'0 0.0
2018-Apr-15 07:31N 44°03' E 009°51'0 0.0
2018-Apr-15 07:00N 44°03' E 009°51'0 0.0
2018-Apr-15 06:30N 44°03' E 009°51'0 0.0
2018-Apr-15 06:01N 44°03' E 009°51'0 0.0
2018-Apr-15 05:30N 44°03' E 009°51'0 0.0
2018-Apr-15 05:00N 44°03' E 009°51'0 0.0
2018-Apr-15 04:30N 44°03' E 009°51'0 0.0
2018-Apr-15 04:00N 44°03' E 009°51'0 0.0
2018-Apr-15 03:30N 44°03' E 009°51'0 0.0
2018-Apr-15 03:01N 44°03' E 009°51'0 0.1
2018-Apr-15 02:30N 44°03' E 009°51'0 0.0
2018-Apr-15 02:00N 44°03' E 009°51'0 0.0
2018-Apr-15 01:30N 44°03' E 009°51'0 0.0
2018-Apr-15 01:00N 44°03' E 009°51'0 0.0
2018-Apr-15 00:30N 44°03' E 009°51'0 0.0
2018-Apr-15 00:00N 44°03' E 009°51'0 0.0
2018-Apr-14 23:31N 44°03' E 009°51'0 0.0
2018-Apr-14 23:00N 44°03' E 009°51'0 0.0
2018-Apr-14 22:30N 44°03' E 009°51'0 0.0
2018-Apr-14 22:00N 44°03' E 009°51'0 0.0
2018-Apr-14 21:30N 44°03' E 009°51'0 0.0
2018-Apr-14 21:01N 44°03' E 009°51'0 0.0
2018-Apr-14 20:30N 44°03' E 009°51'0 0.0
2018-Apr-14 20:00N 44°03' E 009°51'0 0.0
2018-Apr-14 19:30N 44°03' E 009°51'0 0.0
2018-Apr-14 19:00N 44°03' E 009°51'0 0.0
2018-Apr-14 18:30N 44°03' E 009°51'0 0.0
2018-Apr-14 18:00N 44°03' E 009°51'0 0.1
2018-Apr-14 17:30N 44°03' E 009°51'0 0.0
2018-Apr-14 17:01N 44°03' E 009°51'0 0.0
2018-Apr-14 16:30N 44°03' E 009°51'0 0.0
2018-Apr-14 16:00N 44°03' E 009°51'0 0.0
2018-Apr-14 15:31N 44°03' E 009°51'0 0.0
2018-Apr-14 15:00N 44°03' E 009°51'0 0.0
2018-Apr-14 14:30N 44°03' E 009°51'0 0.0
2018-Apr-14 14:01N 44°03' E 009°51'0 0.0
2018-Apr-14 13:31N 44°03' E 009°51'0 0.0
2018-Apr-14 13:00N 44°03' E 009°51'0 0.0
2018-Apr-14 12:30N 44°03' E 009°51'3 5.5
2018-Apr-14 12:00N 44°02' E 009°54'5 9.7
2018-Apr-14 11:30N 44°01' E 010°01'2 2.7
2018-Apr-14 10:55N 44°02' E 010°02'0 0.0
2018-Apr-14 10:25N 44°02' E 010°02'0 0.0
2018-Apr-14 09:43N 44°02' E 010°02'0 0.0
2018-Apr-14 09:25N 44°02' E 010°02'0 0.0
2018-Apr-14 08:58N 44°02' E 010°02'0 0.0
2018-Apr-14 08:28N 44°02' E 010°02'0 0.0
2018-Apr-14 07:58N 44°02' E 010°02'0 0.0
2018-Apr-14 07:25N 44°02' E 010°02'0 0.0
2018-Apr-14 06:58N 44°02' E 010°02'0 0.0
2018-Apr-14 06:28N 44°02' E 010°02'0 0.0
2018-Apr-14 05:58N 44°02' E 010°02'0 0.0
2018-Apr-14 05:28N 44°02' E 010°02'1 2.1
2018-Apr-14 05:01N 44°01' E 010°03'4 8.1
2018-Apr-14 04:30N 43°57' E 010°03'4 8.9
2018-Apr-14 04:01N 43°53' E 010°04'5 9.1
2018-Apr-14 03:30N 43°48' E 010°04'5 9.3
2018-Apr-14 03:01N 43°43' E 010°04'5 9.4
2018-Apr-14 02:30N 43°39' E 010°04'5 9.6
2018-Apr-14 02:01N 43°34' E 010°05'510.6
2018-Apr-14 01:31N 43°29' E 010°06'510.6
2018-Apr-14 01:01N 43°24' E 010°07'510.4
2018-Apr-14 00:30N 43°19' E 010°09'510.4
2018-Apr-14 00:01N 43°14' E 010°11'26 7.3
2018-Apr-13 20:26N 42°48' E 010°20'  

Dump ship's entire track history